Time;durP1;ratioP1;P1;durP2;ratioP2;P2;SDS_P1;SDS_P2;PMS_P1;PMS_P2;Temp;Humidity;BMP_temperature;BMP_pressure;BME280_temperature;BME280_humidity;BME280_pressure;Samples;Min_cycle;Max_cycle;Signal;HPM_P1;HPM_P2
2021/09/28 00:02:15;;;;;;;12.82;2.60;;;;;;;12.13;89.77;102169.88;5051197;28;20366;-61
2021/09/28 00:04:40;;;;;;;11.40;3.03;;;;;;;12.16;89.83;102174.22;5051207;28;20539;-61
2021/09/28 00:07:06;;;;;;;16.63;2.88;;;;;;;12.15;89.75;102175.13;5051503;28;20122;-60
2021/09/28 00:09:31;;;;;;;22.08;3.08;;;;;;;12.12;89.66;102173.44;5051913;28;20036;-61
2021/09/28 00:11:56;;;;;;;14.45;3.08;;;;;;;12.10;89.77;102173.50;5051639;28;20020;-60
2021/09/28 00:14:23;;;;;;;10.95;2.88;;;;;;;12.09;89.35;102182.38;5051413;28;21881;-60
2021/09/28 00:16:49;;;;;;;14.30;2.83;;;;;;;12.06;89.53;102186.91;5051746;28;20025;-60
2021/09/28 00:19:16;;;;;;;17.70;3.35;;;;;;;12.02;89.66;102190.56;5050787;28;20489;-61
2021/09/28 00:21:41;;;;;;;10.40;2.50;;;;;;;12.02;89.87;102182.59;5051856;28;20025;-60
2021/09/28 00:24:07;;;;;;;13.63;2.67;;;;;;;11.98;90.16;102184.47;5051365;28;20025;-60
2021/09/28 00:26:32;;;;;;;14.00;2.97;;;;;;;11.96;90.40;102192.47;5051412;28;20032;-60
2021/09/28 00:28:58;;;;;;;17.77;3.20;;;;;;;11.95;90.25;102180.13;5051685;28;20048;-61
2021/09/28 00:31:23;;;;;;;11.60;2.72;;;;;;;11.95;90.00;102189.84;5053097;28;20037;-61
2021/09/28 00:33:48;;;;;;;12.55;2.92;;;;;;;11.92;90.15;102192.59;5054643;28;20488;-60
2021/09/28 00:36:14;;;;;;;16.63;3.08;;;;;;;11.89;90.21;102193.56;5055098;28;20066;-61
2021/09/28 00:38:39;;;;;;;12.27;2.88;;;;;;;11.87;90.57;102197.19;5055235;28;20031;-61
2021/09/28 00:41:05;;;;;;;10.30;2.90;;;;;;;11.82;90.64;102197.28;5055063;28;20033;-60
2021/09/28 00:43:53;;;;;;;13.90;3.35;;;;;;;11.83;90.94;102190.19;5054700;28;20020;-61
2021/09/28 00:46:18;;;;;;;15.20;4.00;;;;;;;11.82;90.88;102196.44;5054573;28;20029;-61
2021/09/28 00:48:44;;;;;;;12.75;3.17;;;;;;;11.83;90.89;102201.69;5055281;28;20346;-60
2021/09/28 00:51:11;;;;;;;14.07;3.45;;;;;;;11.82;91.20;102199.94;5055007;28;20460;-60
2021/09/28 00:53:38;;;;;;;18.20;3.17;;;;;;;11.82;91.03;102193.78;5054815;28;20381;-60
2021/09/28 00:56:14;;;;;;;13.60;2.95;;;;;;;11.79;90.69;102198.25;5054380;28;20091;-61
2021/09/28 00:58:39;;;;;;;15.50;3.22;;;;;;;11.76;90.91;102200.13;5054600;28;20037;-60
2021/09/28 01:01:06;;;;;;;14.65;3.60;;;;;;;11.74;90.99;102204.59;5054645;28;20123;-61
2021/09/28 01:03:32;;;;;;;18.58;3.75;;;;;;;11.71;91.16;102204.69;5054827;28;20099;-61
2021/09/28 01:05:57;;;;;;;11.48;3.30;;;;;;;11.70;91.34;102210.91;5054056;28;20457;-61
2021/09/28 01:08:23;;;;;;;13.38;3.13;;;;;;;11.67;91.31;102201.25;5054558;28;20115;-62
2021/09/28 01:10:49;;;;;;;16.67;3.50;;;;;;;11.64;91.20;102198.69;5054645;28;20036;-60
2021/09/28 01:13:14;;;;;;;11.90;3.20;;;;;;;11.60;91.58;102197.03;5054936;28;20025;-60
2021/09/28 01:15:46;;;;;;;17.33;2.97;;;;;;;11.61;91.76;102204.06;5054262;28;20132;-60
2021/09/28 01:18:12;;;;;;;11.90;3.00;;;;;;;11.59;91.69;102200.59;5054089;28;20310;-60
2021/09/28 01:20:37;;;;;;;16.95;3.50;;;;;;;11.59;91.58;102206.75;5054205;28;20473;-61
2021/09/28 01:23:02;;;;;;;15.63;3.30;;;;;;;11.60;91.57;102208.50;5054427;28;20029;-61
2021/09/28 01:25:28;;;;;;;14.70;3.25;;;;;;;11.59;91.70;102212.06;5054177;28;20100;-61
2021/09/28 01:27:53;;;;;;;15.90;3.22;;;;;;;11.57;91.63;102207.72;5053782;28;20041;-61
2021/09/28 01:30:18;;;;;;;14.75;2.90;;;;;;;11.56;91.82;102213.91;5054274;28;20443;-60
2021/09/28 01:32:43;;;;;;;13.88;3.05;;;;;;;11.55;91.77;102213.06;5054075;28;20135;-60
2021/09/28 01:35:10;;;;;;;15.82;3.15;;;;;;;11.57;91.92;102210.38;5054391;28;20049;-60
2021/09/28 01:37:35;;;;;;;15.63;3.33;;;;;;;11.61;91.88;102219.97;5053628;28;20104;-60
2021/09/28 01:40:00;;;;;;;14.98;3.00;;;;;;;11.61;91.82;102207.59;5053457;28;20029;-60
2021/09/28 01:42:26;;;;;;;10.35;3.15;;;;;;;11.63;91.70;102208.41;5053964;28;20112;-60
2021/09/28 01:44:51;;;;;;;14.30;2.92;;;;;;;11.63;91.68;102210.19;5053895;28;20028;-60
2021/09/28 01:47:16;;;;;;;17.02;3.00;;;;;;;11.64;91.24;102211.94;5053750;28;20192;-61
2021/09/28 01:49:42;;;;;;;10.27;2.55;;;;;;;11.64;91.58;102209.28;5053806;28;20373;-60
2021/09/28 01:52:07;;;;;;;12.45;3.05;;;;;;;11.60;91.75;102205.84;5053585;28;20380;-60
2021/09/28 01:54:32;;;;;;;18.25;2.88;;;;;;;11.58;91.53;102214.75;5053585;28;20021;-61
2021/09/28 01:56:58;;;;;;;11.55;2.78;;;;;;;11.56;91.71;102211.25;5053886;28;20082;-60
2021/09/28 01:59:23;;;;;;;16.73;3.15;;;;;;;11.55;91.80;102206.91;5053154;28;20100;-60
2021/09/28 02:01:48;;;;;;;15.10;2.60;;;;;;;11.52;91.94;102197.25;5053768;28;20473;-61
2021/09/28 02:04:14;;;;;;;10.07;2.80;;;;;;;11.51;91.96;102207.88;5053501;28;20393;-59
2021/09/28 02:06:39;;;;;;;14.32;3.58;;;;;;;11.48;92.04;102211.47;5052816;28;20107;-60
2021/09/28 02:09:08;;;;;;;12.80;3.05;;;;;;;11.47;92.22;102209.72;5053314;28;20100;-59
2021/09/28 02:11:34;;;;;;;14.30;3.63;;;;;;;11.46;92.07;102210.66;5053561;28;20025;-60
2021/09/28 02:14:01;;;;;;;9.95;2.60;;;;;;;11.45;92.13;102217.72;5053427;28;20036;-59
2021/09/28 02:16:26;;;;;;;19.23;3.60;;;;;;;11.42;92.39;102212.53;5053096;28;20178;-60
2021/09/28 02:18:52;;;;;;;11.50;2.97;;;;;;;11.39;92.15;102219.69;5053271;28;20521;-60
2021/09/28 02:21:17;;;;;;;15.07;3.00;;;;;;;11.38;92.32;102218.81;5052959;28;20473;-60
2021/09/28 02:23:43;;;;;;;12.13;2.65;;;;;;;11.36;92.35;102220.63;5053124;28;20033;-61
2021/09/28 02:26:08;;;;;;;17.25;2.88;;;;;;;11.34;92.47;102221.59;5053344;28;20377;-61
2021/09/28 02:28:33;;;;;;;12.98;3.15;;;;;;;11.32;92.71;102219.84;5052933;28;20028;-60
2021/09/28 02:30:59;;;;;;;10.23;2.45;;;;;;;11.34;92.43;102222.44;5052846;28;20032;-60
2021/09/28 02:33:24;;;;;;;14.20;3.03;;;;;;;11.29;92.45;102224.34;5052909;28;20171;-60
2021/09/28 02:35:50;;;;;;;14.23;3.45;;;;;;;11.27;92.58;102224.38;5052832;28;20112;-60
2021/09/28 02:38:15;;;;;;;16.27;2.83;;;;;;;11.28;92.47;102233.22;5063036;28;20020;-61
2021/09/28 02:40:40;;;;;;;18.95;2.90;;;;;;;11.26;92.60;102225.28;5069972;28;20428;-61
2021/09/28 02:43:06;;;;;;;20.80;3.00;;;;;;;11.26;92.95;102232.38;5052936;28;20115;-60
2021/09/28 02:45:31;;;;;;;13.95;2.47;;;;;;;11.28;92.50;102228.78;5052951;28;20036;-61
2021/09/28 02:47:56;;;;;;;16.70;3.17;;;;;;;11.27;92.23;102224.38;5052623;28;20477;-60
2021/09/28 02:50:22;;;;;;;13.10;2.90;;;;;;;11.26;93.12;102225.28;5052463;28;20032;-60
2021/09/28 02:52:47;;;;;;;15.25;3.10;;;;;;;11.25;92.38;102228.88;5052623;28;20032;-59
2021/09/28 02:55:12;;;;;;;9.98;2.80;;;;;;;11.30;92.32;102226.09;5052264;28;20086;-62
2021/09/28 02:57:38;;;;;;;18.92;3.03;;;;;;;11.31;92.30;102227.84;5052788;28;20057;-60
2021/09/28 03:00:06;;;;;;;15.20;2.78;;;;;;;11.33;91.90;102234.00;5052276;28;20083;-60
2021/09/28 03:02:31;;;;;;;15.48;3.17;;;;;;;11.33;91.95;102234.00;5051995;28;20053;-61
2021/09/28 03:04:57;;;;;;;10.68;2.97;;;;;;;11.30;91.77;102232.28;5052483;28;20437;-60
2021/09/28 03:07:22;;;;;;;16.27;2.70;;;;;;;11.30;92.02;102234.03;5052784;28;20028;-60
2021/09/28 03:09:47;;;;;;;12.32;3.22;;;;;;;11.28;91.89;102234.09;5051910;28;20025;-61
2021/09/28 03:12:13;;;;;;;13.70;2.90;;;;;;;11.26;91.89;102240.34;5052290;28;20017;-59
2021/09/28 03:14:38;;;;;;;12.85;2.92;;;;;;;11.29;92.03;102240.25;5051781;28;20481;-60
2021/09/28 03:17:03;;;;;;;16.70;2.65;;;;;;;11.25;91.91;102242.13;5052327;28;20116;-60
2021/09/28 03:19:29;;;;;;;12.80;2.42;;;;;;;11.26;91.87;102250.94;5050479;28;20032;-59
2021/09/28 03:21:54;;;;;;;16.40;2.75;;;;;;;11.25;91.77;102244.78;5052086;28;20488;-60
2021/09/28 03:24:20;;;;;;;15.68;2.90;;;;;;;11.24;91.78;102243.03;5051999;28;20115;-61
2021/09/28 03:26:46;;;;;;;10.73;2.72;;;;;;;11.24;91.99;102247.47;5052435;28;20023;-61
2021/09/28 03:29:11;;;;;;;11.02;2.47;;;;;;;11.24;91.85;102250.09;5052404;28;20104;-61
2021/09/28 03:31:37;;;;;;;13.02;2.63;;;;;;;11.20;91.79;102245.78;5051715;28;20067;-61
2021/09/28 03:34:03;;;;;;;12.77;2.75;;;;;;;11.18;91.82;102244.94;5051813;28;20037;-60
2021/09/28 03:36:28;;;;;;;18.60;2.55;;;;;;;11.18;91.89;102240.53;5052152;28;20029;-60
2021/09/28 03:38:53;;;;;;;13.95;2.83;;;;;;;11.19;91.96;102252.91;5052062;28;20025;-61
2021/09/28 03:41:19;;;;;;;16.88;2.92;;;;;;;11.21;91.58;102251.06;5051442;28;20381;-60
2021/09/28 03:43:44;;;;;;;17.88;2.60;;;;;;;11.19;91.54;102247.59;5052242;28;20385;-59
2021/09/28 03:46:09;;;;;;;11.77;2.90;;;;;;;11.19;91.81;102252.00;5051526;28;20021;-61
2021/09/28 03:48:35;;;;;;;13.48;2.60;;;;;;;11.19;91.75;102259.97;5052196;28;20025;-61
2021/09/28 03:51:00;;;;;;;14.90;3.10;;;;;;;11.18;91.66;102261.75;5051950;28;20414;-60
2021/09/28 03:53:25;;;;;;;9.57;2.65;;;;;;;11.19;91.93;102252.91;5052032;28;20078;-60
2021/09/28 03:55:51;;;;;;;15.02;2.80;;;;;;;11.23;91.74;102259.00;5051541;28;20373;-60
2021/09/28 03:58:17;;;;;;;14.77;2.50;;;;;;;11.24;91.54;102260.72;5052152;28;20032;-60
2021/09/28 04:00:43;;;;;;;12.85;2.60;;;;;;;11.27;91.59;102258.88;5051501;28;20115;-61
2021/09/28 04:03:09;;;;;;;15.38;2.60;;;;;;;11.25;91.55;102263.34;5052152;28;20029;-61
2021/09/28 04:05:36;;;;;;;14.23;2.78;;;;;;;11.25;91.36;102259.81;5052047;28;20059;-60
2021/09/28 04:08:01;;;;;;;13.55;3.03;;;;;;;11.26;91.53;102259.75;5055493;28;20373;-60
2021/09/28 04:10:27;;;;;;;13.65;2.72;;;;;;;11.29;91.36;102267.66;5055827;28;20024;-61
2021/09/28 04:12:52;;;;;;;9.77;2.55;;;;;;;11.32;91.02;102264.06;5055146;28;20039;-61
2021/09/28 04:15:21;;;;;;;18.45;3.05;;;;;;;11.34;91.00;102266.66;5055770;28;20500;-60
2021/09/28 04:17:47;;;;;;;11.43;2.63;;;;;;;11.36;90.96;102267.50;5055398;28;20056;-60
2021/09/28 04:20:12;;;;;;;13.90;3.00;;;;;;;11.37;90.74;102272.78;5055572;28;20126;-60
2021/09/28 04:22:38;;;;;;;9.77;3.08;;;;;;;11.36;90.54;102273.69;5054835;28;20036;-61
2021/09/28 04:25:04;;;;;;;15.18;3.90;;;;;;;11.37;90.80;102271.88;5055426;28;20064;-60
2021/09/28 04:27:30;;;;;;;12.05;2.92;;;;;;;11.41;90.59;102268.28;5054970;28;20013;-61
2021/09/28 04:29:55;;;;;;;15.13;3.25;;;;;;;11.48;90.46;102264.53;5055488;28;20020;-60
2021/09/28 04:32:21;;;;;;;14.10;3.22;;;;;;;11.49;90.33;102268.94;5054745;28;20045;-59
2021/09/28 04:34:46;;;;;;;13.68;3.20;;;;;;;11.59;90.16;102269.56;5055355;28;20033;-61
2021/09/28 04:37:11;;;;;;;14.40;3.10;;;;;;;11.64;89.80;102272.97;5055462;28;20043;-61
2021/09/28 04:39:37;;;;;;;10.82;2.80;;;;;;;11.71;89.66;102271.03;5054459;28;20492;-60
2021/09/28 04:42:03;;;;;;;15.43;2.92;;;;;;;11.76;89.49;102269.97;5054509;28;20392;-61
2021/09/28 04:44:28;;;;;;;9.90;2.70;;;;;;;11.82;88.67;102257.47;5054605;28;20025;-61
2021/09/28 04:46:54;;;;;;;13.20;2.90;;;;;;;11.89;88.84;102259.91;5055014;28;20021;-60
2021/09/28 04:49:19;;;;;;;11.43;2.75;;;;;;;11.96;88.32;102272.13;5054714;28;20060;-60
2021/09/28 04:51:44;;;;;;;10.77;2.15;;;;;;;11.98;88.33;102268.56;5055207;28;20476;-60
2021/09/28 04:54:10;;;;;;;8.80;2.40;;;;;;;11.96;88.42;102274.78;5054720;28;20527;-59
2021/09/28 04:56:36;;;;;;;14.52;2.72;;;;;;;11.90;88.29;102271.41;5054595;28;20442;-60
2021/09/28 04:59:03;;;;;;;10.07;2.78;;;;;;;11.80;88.57;102270.75;5054325;28;20025;-61
2021/09/28 05:01:28;;;;;;;12.80;2.20;;;;;;;11.70;89.10;102285.19;5054598;28;20044;-61
2021/09/28 05:03:53;;;;;;;12.13;2.58;;;;;;;11.62;89.29;102282.75;5054532;28;20029;-60
2021/09/28 05:06:19;;;;;;;10.20;2.50;;;;;;;11.53;90.13;102278.53;5054609;28;20032;-60
2021/09/28 05:08:44;;;;;;;11.45;2.67;;;;;;;11.50;90.43;102281.28;5054481;28;20552;-59
2021/09/28 05:11:13;;;;;;;12.48;3.40;;;;;;;11.46;90.57;102283.16;5053776;28;20469;-61
2021/09/28 05:13:41;;;;;;;8.27;2.63;;;;;;;11.46;91.05;102288.44;5054182;28;20025;-60
2021/09/28 05:16:06;;;;;;;15.90;2.97;;;;;;;11.46;91.07;102285.78;5053645;28;20048;-60
2021/09/28 05:18:32;;;;;;;14.10;2.75;;;;;;;11.46;91.05;102288.44;5054182;28;20021;-60
2021/09/28 05:20:58;;;;;;;18.55;2.88;;;;;;;11.42;91.05;102289.44;5047950;28;20482;-60
2021/09/28 05:23:23;;;;;;;12.10;2.92;;;;;;;11.42;91.32;102297.41;5034310;28;20025;-60
2021/09/28 05:25:48;;;;;;;12.40;2.83;;;;;;;11.41;91.33;102284.19;5045160;28;20074;-61
2021/09/28 05:28:14;;;;;;;17.55;2.85;;;;;;;11.40;91.50;102296.56;5053967;28;20651;-60
2021/09/28 05:30:43;;;;;;;15.07;3.50;;;;;;;11.38;91.48;102290.44;5054184;28;20028;-59
2021/09/28 05:33:09;;;;;;;15.50;3.20;;;;;;;11.37;91.61;102299.28;5052400;28;20041;-60
2021/09/28 05:35:34;;;;;;;14.68;3.13;;;;;;;11.34;91.53;102295.84;5053850;28;20100;-61
2021/09/28 05:38:00;;;;;;;15.60;3.30;;;;;;;11.31;91.47;102299.44;5053935;28;20359;-60
2021/09/28 05:40:25;;;;;;;11.40;2.92;;;;;;;11.31;91.76;102302.09;5053539;28;20025;-60
2021/09/28 05:42:50;;;;;;;12.88;3.45;;;;;;;11.29;92.00;102304.78;5053796;28;20474;-60
2021/09/28 05:45:16;;;;;;;11.90;3.00;;;;;;;11.28;92.17;102305.69;5053005;28;20040;-60
2021/09/28 05:47:41;;;;;;;15.57;3.00;;;;;;;11.25;92.18;102304.88;5053693;28;20056;-60
2021/09/28 05:50:08;;;;;;;14.18;2.90;;;;;;;11.26;92.29;102309.28;5053892;28;20350;-61
2021/09/28 05:52:33;;;;;;;15.82;3.30;;;;;;;11.28;92.14;102310.13;5051757;28;20421;-61
2021/09/28 05:55:02;;;;;;;15.38;3.65;;;;;;;11.28;92.25;102310.13;5053569;28;20075;-60
2021/09/28 05:57:28;;;;;;;17.08;3.58;;;;;;;11.29;92.20;102311.84;5068188;28;20029;-61
2021/09/28 05:59:53;;;;;;;12.25;3.03;;;;;;;11.31;91.99;102305.59;5073436;28;20021;-60
2021/09/28 06:02:18;;;;;;;14.13;3.42;;;;;;;11.32;91.92;102310.00;5073509;28;20078;-61
2021/09/28 06:04:44;;;;;;;14.10;3.50;;;;;;;11.35;91.98;102310.84;5057973;28;20576;-60
2021/09/28 06:07:10;;;;;;;15.68;3.50;;;;;;;11.36;91.42;102312.59;5052880;28;20390;-61
2021/09/28 06:09:39;;;;;;;17.27;3.88;;;;;;;11.35;91.55;102311.72;5053254;28;20021;-60
2021/09/28 06:12:06;;;;;;;13.25;3.25;;;;;;;11.36;91.44;102312.59;5053125;28;20036;-60
2021/09/28 06:14:33;;;;;;;17.23;3.85;;;;;;;11.38;91.64;102319.63;5052686;28;20021;-61
2021/09/28 06:16:59;;;;;;;16.40;3.67;;;;;;;11.39;91.18;102315.16;5052640;28;20029;-62
2021/09/28 06:19:26;;;;;;;14.82;3.60;;;;;;;11.38;91.73;102314.31;5050487;28;20029;-61
2021/09/28 06:21:52;;;;;;;17.60;3.78;;;;;;;11.40;91.48;102308.97;5046284;28;20462;-60
2021/09/28 06:24:18;;;;;;;13.40;3.50;;;;;;;11.42;91.66;102315.97;5033435;28;20075;-60
2021/09/28 06:26:44;;;;;;;12.63;3.70;;;;;;;11.47;91.58;102313.19;5044860;28;20059;-57
2021/09/28 06:29:10;;;;;;;10.48;3.42;;;;;;;11.53;91.41;102317.47;5042598;28;20104;-61
2021/09/28 06:31:35;;;;;;;16.02;3.13;;;;;;;11.58;90.65;102310.28;5052869;28;20174;-61
2021/09/28 06:34:01;;;;;;;13.35;3.65;;;;;;;11.61;90.46;102307.53;5038936;28;20056;-61
2021/09/28 06:36:26;;;;;;;10.65;3.30;;;;;;;11.62;90.49;102314.59;5052640;28;20031;-61
2021/09/28 06:38:51;;;;;;;12.52;3.08;;;;;;;11.67;90.29;102314.47;5052757;28;20029;-61
2021/09/28 06:41:16;;;;;;;13.52;3.10;;;;;;;11.71;89.92;102321.44;5050340;28;20080;-61
2021/09/28 06:43:42;;;;;;;18.40;3.10;;;;;;;11.73;89.81;102319.63;5053311;28;20192;-59
2021/09/28 06:46:07;;;;;;;12.75;3.17;;;;;;;11.80;89.63;102321.19;5051580;28;20021;-61
2021/09/28 06:48:32;;;;;;;13.50;2.97;;;;;;;11.84;89.53;102325.53;5032379;28;20113;-61
2021/09/28 06:50:58;;;;;;;10.63;3.05;;;;;;;11.90;88.89;102324.50;5029690;28;20025;-61
2021/09/28 06:53:23;;;;;;;12.88;3.65;;;;;;;11.99;88.75;102323.41;5037475;28;20489;-61
2021/09/28 06:55:48;;;;;;;13.55;2.90;;;;;;;12.02;88.55;102326.84;5046728;28;20405;-61
2021/09/28 06:58:14;;;;;;;12.85;3.35;;;;;;;12.09;88.11;102331.06;5045968;28;20449;-59
2021/09/28 07:00:39;;;;;;;14.95;3.30;;;;;;;12.18;87.85;102323.78;5028948;28;20343;-61
2021/09/28 07:03:05;;;;;;;8.73;2.90;;;;;;;12.21;86.92;102323.69;5027899;28;20056;-60
2021/09/28 07:05:32;;;;;;;12.40;3.47;;;;;;;12.21;87.14;102319.25;5041677;28;20420;-61
2021/09/28 07:07:57;;;;;;;11.95;3.45;;;;;;;12.28;87.47;102323.47;5048456;28;20476;-60
2021/09/28 07:10:22;;;;;;;12.98;3.08;;;;;;;12.36;86.68;102325.03;5047856;28;20073;-60
2021/09/28 07:12:48;;;;;;;20.92;4.65;;;;;;;12.37;86.79;102321.47;5048183;28;20136;-61
2021/09/28 07:15:13;;;;;;;11.70;3.22;;;;;;;12.43;86.72;102324.81;5042842;28;20063;-59
2021/09/28 07:17:38;;;;;;;13.20;3.65;;;;;;;12.46;86.25;102332.69;5043386;28;20067;-61
2021/09/28 07:20:05;;;;;;;12.80;3.17;;;;;;;12.55;85.38;102336.00;5035468;28;20087;-60
2021/09/28 07:22:31;;;;;;;13.32;2.85;;;;;;;12.57;85.28;102335.06;5048009;28;20079;-61
2021/09/28 07:24:57;;;;;;;16.48;2.97;;;;;;;12.61;85.35;102328.72;5047592;28;20033;-61
2021/09/28 07:27:23;;;;;;;15.30;4.13;;;;;;;12.71;85.41;102333.75;5048136;28;20454;-61
2021/09/28 07:29:49;;;;;;;15.70;3.88;;;;;;;12.79;85.40;102340.59;5048149;28;20131;-62
2021/09/28 07:32:14;;;;;;;13.55;3.55;;;;;;;12.84;84.84;102345.78;5047570;28;20045;-59
2021/09/28 07:34:40;;;;;;;11.95;3.58;;;;;;;12.92;84.78;102335.75;5047341;28;20029;-59
2021/09/28 07:37:06;;;;;;;15.18;3.35;;;;;;;13.01;84.06;102339.06;5048546;28;20069;-61
2021/09/28 07:39:31;;;;;;;14.75;3.53;;;;;;;13.13;83.90;102341.34;5048186;28;20100;-61
2021/09/28 07:41:57;;;;;;;15.43;3.47;;;;;;;13.22;83.43;102341.06;5051834;28;20029;-59
2021/09/28 07:44:24;;;;;;;8.65;2.80;;;;;;;13.30;82.55;102339.91;5050226;28;20025;-59
2021/09/28 07:46:50;;;;;;;14.50;3.08;;;;;;;13.34;82.98;102345.09;5050950;28;20059;-60
2021/09/28 07:49:15;;;;;;;13.32;3.08;;;;;;;13.43;82.38;102350.16;5042138;28;20037;-61
2021/09/28 07:51:40;;;;;;;11.18;3.33;;;;;;;13.48;81.34;102344.69;5031943;28;20062;-60
2021/09/28 07:54:06;;;;;;;14.65;3.40;;;;;;;13.53;81.44;102345.41;5031565;28;20026;-62
2021/09/28 07:56:31;;;;;;;8.73;2.88;;;;;;;13.51;80.78;102349.03;5051726;28;20124;-61
2021/09/28 07:58:56;;;;;;;13.50;2.95;;;;;;;13.57;81.72;102346.19;5051743;28;20384;-58
2021/09/28 08:01:22;;;;;;;13.20;3.35;;;;;;;13.61;80.81;102358.47;5051508;28;20051;-62
2021/09/28 08:03:47;;;;;;;13.40;3.30;;;;;;;13.73;81.33;102346.53;5051350;28;20483;-61
2021/09/28 08:06:13;;;;;;;10.90;2.83;;;;;;;13.85;80.37;102348.78;5049987;28;20063;-58
2021/09/28 08:08:38;;;;;;;13.27;2.60;;;;;;;13.90;79.55;102344.16;5051526;28;20077;-60
2021/09/28 08:11:03;;;;;;;16.42;4.00;;;;;;;14.02;79.87;102345.50;5041780;28;20373;-62
2021/09/28 08:13:29;;;;;;;34.25;8.18;;;;;;;14.11;79.72;102352.31;5031632;28;20416;-62
2021/09/28 08:15:55;;;;;;;14.00;2.97;;;;;;;14.22;78.63;102349.25;5031462;28;20101;-62
2021/09/28 08:18:20;;;;;;;12.13;2.70;;;;;;;14.33;78.22;102343.53;5043846;28;20051;-60
2021/09/28 08:20:46;;;;;;;10.93;2.90;;;;;;;14.37;77.33;102348.72;5051299;28;20436;-61
2021/09/28 08:23:12;;;;;;;17.10;2.90;;;;;;;14.47;77.39;102343.91;5050973;28;20115;-59
2021/09/28 08:31:02;;;;;;;13.75;3.45;;;;;;;14.73;76.49;102360.72;5031026;28;20106;-61
2021/09/28 08:33:29;;;;;;;11.55;2.92;;;;;;;14.82;77.47;102348.84;5030331;28;20439;-61
2021/09/28 08:35:55;;;;;;;13.55;3.38;;;;;;;14.93;76.02;102354.63;5031178;28;20087;-61
2021/09/28 08:38:20;;;;;;;12.32;2.75;;;;;;;15.01;75.01;102357.91;5045491;28;20028;-60
2021/09/28 08:40:46;;;;;;;11.05;2.53;;;;;;;15.14;75.45;102360.94;5050237;28;20118;-59
2021/09/28 08:43:11;;;;;;;14.95;3.22;;;;;;;15.31;74.36;102362.94;5044355;28;20107;-60
2021/09/28 08:45:36;;;;;;;9.48;2.58;;;;;;;15.50;73.95;102359.50;5050756;28;20029;-61
2021/09/28 08:48:02;;;;;;;12.15;2.30;;;;;;;15.61;72.35;102353.72;5049975;28;20108;-61
2021/09/28 08:50:27;;;;;;;11.63;2.67;;;;;;;15.68;71.93;102357.88;5050043;28;20445;-60
2021/09/28 08:52:53;;;;;;;12.07;3.05;;;;;;;15.96;70.88;102354.94;5050273;28;20024;-60
2021/09/28 08:55:20;;;;;;;14.95;3.22;;;;;;;16.63;67.73;102347.47;5050057;28;20073;-60
2021/09/28 08:57:45;;;;;;;15.48;2.72;;;;;;;17.70;64.26;102355.75;5050480;28;20064;-59
2021/09/28 09:00:13;;;;;;;10.45;2.50;;;;;;;19.09;60.36;102347.50;5049839;28;20410;-59
2021/09/28 09:02:41;;;;;;;10.50;2.50;;;;;;;19.98;56.34;102350.34;5033769;28;20092;-60
2021/09/28 09:05:11;;;;;;;13.98;2.78;;;;;;;21.15;53.34;102343.97;5047548;28;20430;-60
2021/09/28 09:07:37;;;;;;;9.25;2.60;;;;;;;21.46;49.85;102350.00;5050200;28;20100;-60
2021/09/28 09:10:02;;;;;;;11.82;2.80;;;;;;;21.88;48.25;102352.56;5043378;28;20112;-61
2021/09/28 09:12:33;;;;;;;14.68;2.30;;;;;;;22.22;48.08;102343.00;5036172;28;20052;-58
2021/09/28 09:15:19;;;;;;;9.45;2.72;;;;;;;22.44;47.67;102333.41;5049958;28;20438;-58
2021/09/28 09:17:46;;;;;;;9.60;2.63;;;;;;;22.76;46.67;102346.41;5050818;28;20035;-57
2021/09/28 09:20:34;;;;;;;7.82;2.20;;;;;;;22.90;45.04;102334.59;5048550;28;20025;-59
2021/09/28 09:23:15;;;;;;;11.07;2.40;;;;;;;22.95;45.49;102342.34;5046692;28;20433;-59
2021/09/28 09:25:40;;;;;;;9.35;2.50;;;;;;;22.46;46.02;102338.72;5046345;28;20106;-59
2021/09/28 09:28:21;;;;;;;10.15;2.65;;;;;;;22.76;45.92;102332.91;5049437;28;20104;-59
2021/09/28 09:30:46;;;;;;;9.73;3.55;;;;;;;23.21;45.96;102335.03;5049661;28;20028;-58
2021/09/28 09:33:11;;;;;;;11.23;2.97;;;;;;;23.21;45.49;102332.31;5043046;28;20093;-60
2021/09/28 09:35:36;;;;;;;12.85;2.83;;;;;;;23.50;44.14;102323.84;5049365;28;20100;-58
2021/09/28 09:38:08;;;;;;;9.52;2.47;;;;;;;23.62;42.42;102314.81;5049886;28;20073;-59
2021/09/28 09:40:46;;;;;;;11.82;3.25;;;;;;;23.72;42.48;102318.53;5048609;28;20186;-60
2021/09/28 09:43:14;;;;;;;10.07;2.63;;;;;;;23.89;41.42;102317.19;5049274;28;20036;-60
2021/09/28 09:45:39;;;;;;;10.15;2.50;;;;;;;23.53;42.95;102316.38;5044875;28;20039;-62
2021/09/28 09:48:26;;;;;;;11.82;2.60;;;;;;;24.06;42.59;102320.44;5045787;28;20029;-60
2021/09/28 09:51:03;;;;;;;9.88;2.42;;;;;;;24.07;42.12;102313.19;5042068;28;20033;-60
2021/09/28 09:53:28;;;;;;;10.10;3.25;;;;;;;23.65;43.71;102321.81;5049555;28;20421;-60
2021/09/28 09:55:53;;;;;;;13.90;2.95;;;;;;;23.54;42.94;102314.53;5048222;28;20128;-59
2021/09/28 09:58:20;;;;;;;12.13;2.80;;;;;;;23.37;44.84;102322.09;5049389;28;20052;-59
2021/09/28 10:00:49;;;;;;;11.40;2.78;;;;;;;22.97;45.92;102316.06;5047315;28;20420;-59
2021/09/28 10:03:16;;;;;;;16.23;3.90;;;;;;;23.66;42.99;102313.59;5047268;28;20131;-59
2021/09/28 10:05:41;;;;;;;13.23;3.28;;;;;;;23.94;43.40;102308.75;5048411;28;20040;-58
2021/09/28 10:08:11;;;;;;;10.55;2.55;;;;;;;24.34;43.04;102312.84;5049391;28;20100;-60
2021/09/28 10:10:37;;;;;;;12.25;3.22;;;;;;;24.74;42.07;102315.03;5048579;28;20029;-60
2021/09/28 10:13:03;;;;;;;10.70;2.75;;;;;;;23.81;42.71;102310.66;5049171;28;20037;-61
2021/09/28 10:15:30;;;;;;;13.35;3.00;;;;;;;23.40;44.11;102313.75;5048210;28;20035;-59
2021/09/28 10:17:55;;;;;;;16.40;3.05;;;;;;;23.79;44.07;102299.97;5048098;28;20571;-59
2021/09/28 10:20:20;;;;;;;8.68;2.72;;;;;;;24.38;41.96;102306.19;5048425;28;20052;-59
2021/09/28 10:22:52;;;;;;;10.77;2.80;;;;;;;24.51;41.70;102296.06;5049376;28;20044;-58
2021/09/28 10:25:20;;;;;;;12.68;3.30;;;;;;;24.75;41.19;102296.94;5047892;28;20037;-59
2021/09/28 10:27:50;;;;;;;11.38;2.72;;;;;;;24.70;40.50;102305.44;5047967;28;20037;-60
2021/09/28 10:30:40;;;;;;;13.23;3.65;;;;;;;24.68;40.41;102307.41;5048541;28;20616;-58
2021/09/28 10:33:24;;;;;;;12.52;3.15;;;;;;;24.58;41.01;102296.47;5021613;28;20585;-60
2021/09/28 10:35:55;;;;;;;10.85;2.60;;;;;;;24.41;40.35;102302.38;5019419;28;20041;-60
2021/09/28 10:38:54;;;;;;;28.05;7.18;;;;;;;24.79;39.66;102285.72;5009139;28;20037;-60
2021/09/28 10:41:31;;;;;;;13.32;3.10;;;;;;;25.18;39.08;102306.91;5026099;28;20137;-60
2021/09/28 10:44:24;;;;;;;14.35;3.10;;;;;;;24.57;39.16;102277.63;5024219;28;20401;-59
2021/09/28 10:46:50;;;;;;;11.65;2.38;;;;;;;24.30;39.70;102285.16;5010854;28;20037;-59
2021/09/28 10:49:25;;;;;;;14.50;3.55;;;;;;;23.86;41.83;102276.00;5009812;28;20037;-61
2021/09/28 10:52:10;;;;;;;10.27;2.88;;;;;;;23.21;43.06;102279.16;5025856;28;20057;-58
2021/09/28 10:55:11;;;;;;;11.80;3.47;;;;;;;22.64;43.57;102274.41;5018107;28;20410;-59
2021/09/28 10:57:56;;;;;;;9.40;2.72;;;;;;;23.96;42.17;102268.06;5005903;28;20046;-59
2021/09/28 11:00:26;;;;;;;13.35;3.20;;;;;;;24.26;41.33;102267.44;5014784;28;20117;-60
2021/09/28 11:02:58;;;;;;;12.07;2.70;;;;;;;24.53;38.48;102258.91;5025487;28;20457;-59
2021/09/28 11:05:33;;;;;;;10.10;2.60;;;;;;;23.12;41.69;102260.03;5006839;28;20045;-60
2021/09/28 11:08:00;;;;;;;11.70;3.55;;;;;;;22.17;45.04;102264.22;5005695;28;20042;-60
2021/09/28 11:10:28;;;;;;;12.25;2.50;;;;;;;21.69;44.87;102272.97;5025851;28;20116;-61
2021/09/28 11:12:53;;;;;;;12.55;3.20;;;;;;;21.74;45.69;102256.47;5047835;28;20071;-59
2021/09/28 11:15:20;;;;;;;14.75;3.25;;;;;;;22.16;44.78;102259.81;5044967;28;20160;-59
2021/09/28 11:17:45;;;;;;;10.63;2.53;;;;;;;22.65;43.74;102249.13;5045728;28;20167;-59
2021/09/28 11:20:25;;;;;;;13.10;2.65;;;;;;;23.92;41.66;102253.06;5047130;28;20135;-60
2021/09/28 11:22:54;;;;;;;13.55;3.67;;;;;;;24.81;39.49;102259.38;5039665;28;20036;-60